sensor_id;sensor_type;location;lat;lon;timestamp;temperature;humidity
40848;DHT22;26570;50.962;5.340;2024-02-23T00:00:02;6.80;99.90
40848;DHT22;26570;50.962;5.340;2024-02-23T00:02:51;6.80;99.90
40848;DHT22;26570;50.962;5.340;2024-02-23T00:05:47;6.90;99.90
40848;DHT22;26570;50.962;5.340;2024-02-23T00:11:52;6.60;99.90
40848;DHT22;26570;50.962;5.340;2024-02-23T00:19:36;6.40;99.90
40848;DHT22;26570;50.962;5.340;2024-02-23T00:25:38;6.50;99.90
40848;DHT22;26570;50.962;5.340;2024-02-23T00:32:38;6.10;99.90
40848;DHT22;26570;50.962;5.340;2024-02-23T00:35:52;6.60;99.90
40848;DHT22;26570;50.962;5.340;2024-02-23T00:38:58;6.50;99.90
40848;DHT22;26570;50.962;5.340;2024-02-23T00:41:48;6.50;99.90
40848;DHT22;26570;50.962;5.340;2024-02-23T00:44:56;6.30;99.90
40848;DHT22;26570;50.962;5.340;2024-02-23T00:47:46;6.30;99.90
40848;DHT22;26570;50.962;5.340;2024-02-23T00:50:35;6.40;99.90
40848;DHT22;26570;50.962;5.340;2024-02-23T00:53:48;6.40;99.90
40848;DHT22;26570;50.962;5.340;2024-02-23T01:01:06;6.20;99.90
40848;DHT22;26570;50.962;5.340;2024-02-23T01:03:52;6.10;99.90
40848;DHT22;26570;50.962;5.340;2024-02-23T01:07:06;6.10;99.90
40848;DHT22;26570;50.962;5.340;2024-02-23T01:13:30;6.20;99.90
40848;DHT22;26570;50.962;5.340;2024-02-23T01:20:52;5.90;99.90
40848;DHT22;26570;50.962;5.340;2024-02-23T01:23:52;6.00;99.90
40848;DHT22;26570;50.962;5.340;2024-02-23T01:41:18;6.20;99.90
40848;DHT22;26570;50.962;5.340;2024-02-23T01:44:34;6.20;99.90
40848;DHT22;26570;50.962;5.340;2024-02-23T01:47:25;6.20;99.90
40848;DHT22;26570;50.962;5.340;2024-02-23T01:50:54;6.30;99.90
40848;DHT22;26570;50.962;5.340;2024-02-23T01:54:12;6.20;99.90
40848;DHT22;26570;50.962;5.340;2024-02-23T01:57:33;6.20;99.90
40848;DHT22;26570;50.962;5.340;2024-02-23T02:00:59;6.20;99.90
40848;DHT22;26570;50.962;5.340;2024-02-23T02:07:24;5.90;99.90
40848;DHT22;26570;50.962;5.340;2024-02-23T02:10:14;5.90;99.90
40848;DHT22;26570;50.962;5.340;2024-02-23T02:16:40;6.10;99.90
40848;DHT22;26570;50.962;5.340;2024-02-23T02:20:08;6.20;99.90
40848;DHT22;26570;50.962;5.340;2024-02-23T02:23:02;6.20;99.90
40848;DHT22;26570;50.962;5.340;2024-02-23T02:26:17;6.20;99.90
40848;DHT22;26570;50.962;5.340;2024-02-23T02:32:30;6.30;99.90
40848;DHT22;26570;50.962;5.340;2024-02-23T02:35:15;6.50;99.90
40848;DHT22;26570;50.962;5.340;2024-02-23T02:38:13;6.60;99.90
40848;DHT22;26570;50.962;5.340;2024-02-23T02:41:30;6.60;99.90
40848;DHT22;26570;50.962;5.340;2024-02-23T02:44:20;6.40;99.90
40848;DHT22;26570;50.962;5.340;2024-02-23T02:47:36;6.50;99.90
40848;DHT22;26570;50.962;5.340;2024-02-23T02:50:26;6.40;99.90
40848;DHT22;26570;50.962;5.340;2024-02-23T02:53:20;6.40;99.90
40848;DHT22;26570;50.962;5.340;2024-02-23T02:57:00;6.20;99.90
40848;DHT22;26570;50.962;5.340;2024-02-23T02:59:49;6.20;99.90
40848;DHT22;26570;50.962;5.340;2024-02-23T03:03:20;6.20;99.90
40848;DHT22;26570;50.962;5.340;2024-02-23T03:06:11;6.30;99.90
40848;DHT22;26570;50.962;5.340;2024-02-23T03:08:59;6.30;99.90
40848;DHT22;26570;50.962;5.340;2024-02-23T03:12:29;6.40;99.90
40848;DHT22;26570;50.962;5.340;2024-02-23T03:15:20;6.20;99.90
40848;DHT22;26570;50.962;5.340;2024-02-23T03:18:29;6.20;99.90
40848;DHT22;26570;50.962;5.340;2024-02-23T03:21:18;6.30;99.90
40848;DHT22;26570;50.962;5.340;2024-02-23T03:24:08;6.20;99.90
40848;DHT22;26570;50.962;5.340;2024-02-23T03:33:56;6.50;99.90
40848;DHT22;26570;50.962;5.340;2024-02-23T03:36:41;6.70;99.90
40848;DHT22;26570;50.962;5.340;2024-02-23T03:39:56;6.60;99.90
40848;DHT22;26570;50.962;5.340;2024-02-23T03:42:53;6.70;99.90
40848;DHT22;26570;50.962;5.340;2024-02-23T03:45:56;6.60;99.90
40848;DHT22;26570;50.962;5.340;2024-02-23T03:48:47;6.60;99.90
40848;DHT22;26570;50.962;5.340;2024-02-23T03:51:42;6.60;99.90
40848;DHT22;26570;50.962;5.340;2024-02-23T03:54:28;6.70;99.90
40848;DHT22;26570;50.962;5.340;2024-02-23T03:57:19;6.70;99.90
40848;DHT22;26570;50.962;5.340;2024-02-23T04:00:30;6.50;99.90
40848;DHT22;26570;50.962;5.340;2024-02-23T04:04:10;6.50;99.90
40848;DHT22;26570;50.962;5.340;2024-02-23T04:06:58;6.40;99.90
40848;DHT22;26570;50.962;5.340;2024-02-23T04:09:44;6.40;99.90
40848;DHT22;26570;50.962;5.340;2024-02-23T04:12:30;6.40;99.90
40848;DHT22;26570;50.962;5.340;2024-02-23T04:15:27;6.70;99.90
40848;DHT22;26570;50.962;5.340;2024-02-23T04:21:53;6.60;99.90
40848;DHT22;26570;50.962;5.340;2024-02-23T04:24:41;6.80;99.90
40848;DHT22;26570;50.962;5.340;2024-02-23T04:27:27;6.90;99.90
40848;DHT22;26570;50.962;5.340;2024-02-23T04:30:15;6.90;99.90
40848;DHT22;26570;50.962;5.340;2024-02-23T04:33:47;6.90;99.90
40848;DHT22;26570;50.962;5.340;2024-02-23T04:36:40;6.80;99.90
40848;DHT22;26570;50.962;5.340;2024-02-23T04:39:29;6.80;99.90
40848;DHT22;26570;50.962;5.340;2024-02-23T04:42:16;6.90;99.90
40848;DHT22;26570;50.962;5.340;2024-02-23T04:45:09;6.90;99.90
40848;DHT22;26570;50.962;5.340;2024-02-23T04:47:55;6.90;99.90
40848;DHT22;26570;50.962;5.340;2024-02-23T04:50:45;6.90;99.90
40848;DHT22;26570;50.962;5.340;2024-02-23T04:53:36;7.10;99.90
40848;DHT22;26570;50.962;5.340;2024-02-23T04:56:33;7.10;99.90
40848;DHT22;26570;50.962;5.340;2024-02-23T04:59:21;7.00;99.90
40848;DHT22;26570;50.962;5.340;2024-02-23T05:02:30;6.50;99.90
40848;DHT22;26570;50.962;5.340;2024-02-23T05:05:19;6.70;99.90
40848;DHT22;26570;50.962;5.340;2024-02-23T05:08:50;6.80;99.90
40848;DHT22;26570;50.962;5.340;2024-02-23T05:11:45;7.00;99.90
40848;DHT22;26570;50.962;5.340;2024-02-23T05:19:10;7.10;99.90
40848;DHT22;26570;50.962;5.340;2024-02-23T05:22:16;7.00;99.90
40848;DHT22;26570;50.962;5.340;2024-02-23T05:29:15;7.00;99.90
40848;DHT22;26570;50.962;5.340;2024-02-23T05:36:45;7.40;99.90
40848;DHT22;26570;50.962;5.340;2024-02-23T05:39:32;7.00;99.90
40848;DHT22;26570;50.962;5.340;2024-02-23T05:42:19;7.10;99.90
40848;DHT22;26570;50.962;5.340;2024-02-23T05:45:12;6.90;99.90
40848;DHT22;26570;50.962;5.340;2024-02-23T05:55:52;7.00;99.90
40848;DHT22;26570;50.962;5.340;2024-02-23T05:58:46;6.90;99.90
40848;DHT22;26570;50.962;5.340;2024-02-23T06:06:16;6.90;99.90
40848;DHT22;26570;50.962;5.340;2024-02-23T06:09:22;7.00;99.90
40848;DHT22;26570;50.962;5.340;2024-02-23T06:12:13;6.90;99.90
40848;DHT22;26570;50.962;5.340;2024-02-23T06:18:39;6.90;99.90
40848;DHT22;26570;50.962;5.340;2024-02-23T06:21:27;6.80;99.90
40848;DHT22;26570;50.962;5.340;2024-02-23T06:24:13;6.80;99.90
40848;DHT22;26570;50.962;5.340;2024-02-23T06:26:57;6.90;99.90
40848;DHT22;26570;50.962;5.340;2024-02-23T06:29:44;6.90;99.90
40848;DHT22;26570;50.962;5.340;2024-02-23T06:32:29;7.00;99.90
40848;DHT22;26570;50.962;5.340;2024-02-23T06:35:14;6.80;99.90
40848;DHT22;26570;50.962;5.340;2024-02-23T06:37:58;6.90;99.90
40848;DHT22;26570;50.962;5.340;2024-02-23T06:40:43;6.70;99.90
40848;DHT22;26570;50.962;5.340;2024-02-23T06:43:29;6.80;99.90
40848;DHT22;26570;50.962;5.340;2024-02-23T06:46:14;6.80;99.90
40848;DHT22;26570;50.962;5.340;2024-02-23T06:48:59;6.80;99.90
40848;DHT22;26570;50.962;5.340;2024-02-23T06:51:44;6.90;99.90
40848;DHT22;26570;50.962;5.340;2024-02-23T06:54:30;6.90;99.90
40848;DHT22;26570;50.962;5.340;2024-02-23T06:57:15;6.80;99.90
40848;DHT22;26570;50.962;5.340;2024-02-23T07:00:00;6.80;99.90
40848;DHT22;26570;50.962;5.340;2024-02-23T07:02:47;6.80;99.90
40848;DHT22;26570;50.962;5.340;2024-02-23T07:05:32;6.80;99.90
40848;DHT22;26570;50.962;5.340;2024-02-23T07:08:19;6.90;99.90
40848;DHT22;26570;50.962;5.340;2024-02-23T07:11:05;6.80;99.90
40848;DHT22;26570;50.962;5.340;2024-02-23T07:13:51;6.80;99.90
40848;DHT22;26570;50.962;5.340;2024-02-23T07:16:59;6.70;99.90
40848;DHT22;26570;50.962;5.340;2024-02-23T07:19:45;6.70;99.90
40848;DHT22;26570;50.962;5.340;2024-02-23T07:22:30;6.70;99.90
40848;DHT22;26570;50.962;5.340;2024-02-23T07:25:19;6.70;99.90
40848;DHT22;26570;50.962;5.340;2024-02-23T07:28:07;6.60;99.90
40848;DHT22;26570;50.962;5.340;2024-02-23T07:30:52;6.60;99.90
40848;DHT22;26570;50.962;5.340;2024-02-23T07:33:38;6.80;99.90
40848;DHT22;26570;50.962;5.340;2024-02-23T07:36:26;6.90;99.90
40848;DHT22;26570;50.962;5.340;2024-02-23T07:39:34;6.80;99.90
40848;DHT22;26570;50.962;5.340;2024-02-23T07:42:19;7.00;99.90
40848;DHT22;26570;50.962;5.340;2024-02-23T07:45:06;7.10;99.90
40848;DHT22;26570;50.962;5.340;2024-02-23T07:47:55;7.10;99.90
40848;DHT22;26570;50.962;5.340;2024-02-23T07:50:40;7.10;99.90
40848;DHT22;26570;50.962;5.340;2024-02-23T07:53:26;7.20;99.90
40848;DHT22;26570;50.962;5.340;2024-02-23T07:56:11;7.20;99.90
40848;DHT22;26570;50.962;5.340;2024-02-23T07:58:57;7.10;99.90
40848;DHT22;26570;50.962;5.340;2024-02-23T08:01:43;7.40;99.90
40848;DHT22;26570;50.962;5.340;2024-02-23T08:04:28;7.50;99.90
40848;DHT22;26570;50.962;5.340;2024-02-23T08:07:13;7.50;99.90
40848;DHT22;26570;50.962;5.340;2024-02-23T08:10:21;7.50;99.90
40848;DHT22;26570;50.962;5.340;2024-02-23T08:13:06;7.30;99.90
40848;DHT22;26570;50.962;5.340;2024-02-23T08:15:52;7.40;99.90
40848;DHT22;26570;50.962;5.340;2024-02-23T08:18:37;7.70;99.90
40848;DHT22;26570;50.962;5.340;2024-02-23T08:21:22;7.70;99.90
40848;DHT22;26570;50.962;5.340;2024-02-23T08:24:07;7.70;99.90
40848;DHT22;26570;50.962;5.340;2024-02-23T08:26:53;7.70;99.90
40848;DHT22;26570;50.962;5.340;2024-02-23T08:29:38;7.60;99.90
40848;DHT22;26570;50.962;5.340;2024-02-23T08:32:23;7.70;99.90
40848;DHT22;26570;50.962;5.340;2024-02-23T08:35:09;7.70;99.90
40848;DHT22;26570;50.962;5.340;2024-02-23T08:37:54;7.70;99.90
40848;DHT22;26570;50.962;5.340;2024-02-23T08:40:39;7.70;99.90
40848;DHT22;26570;50.962;5.340;2024-02-23T08:43:49;7.80;99.90
40848;DHT22;26570;50.962;5.340;2024-02-23T08:46:34;7.90;99.90
40848;DHT22;26570;50.962;5.340;2024-02-23T08:49:20;7.90;99.90
40848;DHT22;26570;50.962;5.340;2024-02-23T08:52:05;8.00;99.90
40848;DHT22;26570;50.962;5.340;2024-02-23T08:54:51;8.10;99.90
40848;DHT22;26570;50.962;5.340;2024-02-23T08:57:36;8.30;99.90
40848;DHT22;26570;50.962;5.340;2024-02-23T09:00:21;8.40;99.90
40848;DHT22;26570;50.962;5.340;2024-02-23T09:03:07;8.40;99.90
40848;DHT22;26570;50.962;5.340;2024-02-23T09:05:52;8.60;99.90
40848;DHT22;26570;50.962;5.340;2024-02-23T09:08:38;8.90;99.90
40848;DHT22;26570;50.962;5.340;2024-02-23T09:11:23;8.80;99.90
40848;DHT22;26570;50.962;5.340;2024-02-23T09:14:08;8.90;99.90
40848;DHT22;26570;50.962;5.340;2024-02-23T09:16:54;9.00;99.90
40848;DHT22;26570;50.962;5.340;2024-02-23T09:19:39;8.80;99.90
40848;DHT22;26570;50.962;5.340;2024-02-23T09:22:25;8.80;99.90
40848;DHT22;26570;50.962;5.340;2024-02-23T09:25:11;9.10;99.90
40848;DHT22;26570;50.962;5.340;2024-02-23T09:27:57;9.00;99.90
40848;DHT22;26570;50.962;5.340;2024-02-23T09:30:43;8.90;99.90
40848;DHT22;26570;50.962;5.340;2024-02-23T09:33:28;9.00;99.90
40848;DHT22;26570;50.962;5.340;2024-02-23T09:36:13;9.10;99.90
40848;DHT22;26570;50.962;5.340;2024-02-23T09:38:58;9.30;99.90
40848;DHT22;26570;50.962;5.340;2024-02-23T09:41:43;9.40;99.90
40848;DHT22;26570;50.962;5.340;2024-02-23T09:44:34;9.00;99.90
40848;DHT22;26570;50.962;5.340;2024-02-23T09:47:20;9.30;99.90
40848;DHT22;26570;50.962;5.340;2024-02-23T09:50:05;9.40;99.90
40848;DHT22;26570;50.962;5.340;2024-02-23T09:52:51;9.50;99.90
40848;DHT22;26570;50.962;5.340;2024-02-23T09:55:36;9.50;99.90
40848;DHT22;26570;50.962;5.340;2024-02-23T09:58:22;9.30;99.90
40848;DHT22;26570;50.962;5.340;2024-02-23T10:01:08;9.20;99.90
40848;DHT22;26570;50.962;5.340;2024-02-23T10:03:57;9.10;99.90
40848;DHT22;26570;50.962;5.340;2024-02-23T10:06:45;9.00;99.90
40848;DHT22;26570;50.962;5.340;2024-02-23T10:09:30;9.10;99.90
40848;DHT22;26570;50.962;5.340;2024-02-23T10:12:16;8.90;99.90
40848;DHT22;26570;50.962;5.340;2024-02-23T10:15:03;8.60;99.90
40848;DHT22;26570;50.962;5.340;2024-02-23T10:17:48;8.50;99.90
40848;DHT22;26570;50.962;5.340;2024-02-23T10:20:56;8.50;99.90
40848;DHT22;26570;50.962;5.340;2024-02-23T10:23:43;8.50;99.90
40848;DHT22;26570;50.962;5.340;2024-02-23T10:26:29;8.40;99.90
40848;DHT22;26570;50.962;5.340;2024-02-23T10:29:14;8.40;99.90
40848;DHT22;26570;50.962;5.340;2024-02-23T10:32:01;8.40;99.90
40848;DHT22;26570;50.962;5.340;2024-02-23T10:34:48;8.50;99.90
40848;DHT22;26570;50.962;5.340;2024-02-23T10:37:35;8.60;99.90
40848;DHT22;26570;50.962;5.340;2024-02-23T10:40:21;8.70;99.90
40848;DHT22;26570;50.962;5.340;2024-02-23T10:43:12;8.70;99.90
40848;DHT22;26570;50.962;5.340;2024-02-23T10:46:01;8.80;99.90
40848;DHT22;26570;50.962;5.340;2024-02-23T10:48:48;9.00;99.90
40848;DHT22;26570;50.962;5.340;2024-02-23T10:51:34;9.20;99.90
40848;DHT22;26570;50.962;5.340;2024-02-23T10:54:20;9.40;99.90
40848;DHT22;26570;50.962;5.340;2024-02-23T10:57:06;9.50;99.90
40848;DHT22;26570;50.962;5.340;2024-02-23T10:59:51;9.30;99.90
40848;DHT22;26570;50.962;5.340;2024-02-23T11:02:43;9.60;99.90
40848;DHT22;26570;50.962;5.340;2024-02-23T11:05:31;9.60;99.90
40848;DHT22;26570;50.962;5.340;2024-02-23T11:08:20;9.50;99.90
40848;DHT22;26570;50.962;5.340;2024-02-23T11:11:09;9.60;99.90
40848;DHT22;26570;50.962;5.340;2024-02-23T11:13:56;9.50;99.90
40848;DHT22;26570;50.962;5.340;2024-02-23T11:17:04;9.40;99.90
40848;DHT22;26570;50.962;5.340;2024-02-23T11:19:49;9.50;99.90
40848;DHT22;26570;50.962;5.340;2024-02-23T11:22:37;9.50;99.90
40848;DHT22;26570;50.962;5.340;2024-02-23T11:25:26;9.70;99.90
40848;DHT22;26570;50.962;5.340;2024-02-23T11:28:23;9.70;99.90
40848;DHT22;26570;50.962;5.340;2024-02-23T11:31:13;9.60;99.90
40848;DHT22;26570;50.962;5.340;2024-02-23T11:33:58;9.60;99.90
40848;DHT22;26570;50.962;5.340;2024-02-23T11:36:43;9.50;99.90
40848;DHT22;26570;50.962;5.340;2024-02-23T11:39:38;9.70;99.90
40848;DHT22;26570;50.962;5.340;2024-02-23T11:42:24;9.80;99.90
40848;DHT22;26570;50.962;5.340;2024-02-23T11:45:11;9.70;99.90
40848;DHT22;26570;50.962;5.340;2024-02-23T11:47:56;9.70;99.90
40848;DHT22;26570;50.962;5.340;2024-02-23T11:50:41;9.70;99.90
40848;DHT22;26570;50.962;5.340;2024-02-23T11:53:26;9.80;99.90
40848;DHT22;26570;50.962;5.340;2024-02-23T11:56:12;9.90;99.90
40848;DHT22;26570;50.962;5.340;2024-02-23T11:58:57;9.90;99.90
40848;DHT22;26570;50.962;5.340;2024-02-23T12:01:43;9.90;99.90
40848;DHT22;26570;50.962;5.340;2024-02-23T12:04:30;9.70;99.90
40848;DHT22;26570;50.962;5.340;2024-02-23T12:07:15;9.80;99.90
40848;DHT22;26570;50.962;5.340;2024-02-23T12:10:23;9.60;99.90
40848;DHT22;26570;50.962;5.340;2024-02-23T12:13:07;9.60;99.90
40848;DHT22;26570;50.962;5.340;2024-02-23T12:15:53;9.90;99.90
40848;DHT22;26570;50.962;5.340;2024-02-23T12:18:38;9.70;99.90
40848;DHT22;26570;50.962;5.340;2024-02-23T12:21:23;9.50;99.90
40848;DHT22;26570;50.962;5.340;2024-02-23T12:24:31;9.50;99.90
40848;DHT22;26570;50.962;5.340;2024-02-23T12:27:17;9.60;99.90
40848;DHT22;26570;50.962;5.340;2024-02-23T12:30:05;9.60;99.90
40848;DHT22;26570;50.962;5.340;2024-02-23T12:33:03;9.80;99.90
40848;DHT22;26570;50.962;5.340;2024-02-23T12:35:54;9.80;99.90
40848;DHT22;26570;50.962;5.340;2024-02-23T12:38:40;9.70;99.90
40848;DHT22;26570;50.962;5.340;2024-02-23T12:41:25;9.80;99.90
40848;DHT22;26570;50.962;5.340;2024-02-23T12:44:09;9.90;99.90
40848;DHT22;26570;50.962;5.340;2024-02-23T12:46:55;9.90;99.90
40848;DHT22;26570;50.962;5.340;2024-02-23T12:49:40;9.80;99.90
40848;DHT22;26570;50.962;5.340;2024-02-23T12:52:25;9.80;99.90
40848;DHT22;26570;50.962;5.340;2024-02-23T12:55:32;9.70;99.90
40848;DHT22;26570;50.962;5.340;2024-02-23T12:58:18;9.50;99.90
40848;DHT22;26570;50.962;5.340;2024-02-23T13:01:04;9.60;99.90
40848;DHT22;26570;50.962;5.340;2024-02-23T13:03:50;9.70;99.90
40848;DHT22;26570;50.962;5.340;2024-02-23T13:06:39;9.80;99.90
40848;DHT22;26570;50.962;5.340;2024-02-23T13:09:24;9.70;99.90
40848;DHT22;26570;50.962;5.340;2024-02-23T13:12:09;10.00;99.90
40848;DHT22;26570;50.962;5.340;2024-02-23T13:14:54;10.20;99.90
40848;DHT22;26570;50.962;5.340;2024-02-23T13:17:42;10.30;99.90
40848;DHT22;26570;50.962;5.340;2024-02-23T13:20:27;10.20;99.90
40848;DHT22;26570;50.962;5.340;2024-02-23T13:23:12;9.80;99.90
40848;DHT22;26570;50.962;5.340;2024-02-23T13:25:57;9.90;99.90
40848;DHT22;26570;50.962;5.340;2024-02-23T13:28:43;9.90;99.90
40848;DHT22;26570;50.962;5.340;2024-02-23T13:31:28;10.00;99.90
40848;DHT22;26570;50.962;5.340;2024-02-23T13:34:39;10.20;99.90
40848;DHT22;26570;50.962;5.340;2024-02-23T13:37:24;10.10;99.90
40848;DHT22;26570;50.962;5.340;2024-02-23T13:40:11;10.20;99.90
40848;DHT22;26570;50.962;5.340;2024-02-23T13:42:56;10.20;99.90
40848;DHT22;26570;50.962;5.340;2024-02-23T13:45:52;10.00;99.90
40848;DHT22;26570;50.962;5.340;2024-02-23T13:48:37;9.90;99.90
40848;DHT22;26570;50.962;5.340;2024-02-23T13:51:22;10.00;99.90
40848;DHT22;26570;50.962;5.340;2024-02-23T13:54:30;10.20;99.90
40848;DHT22;26570;50.962;5.340;2024-02-23T13:57:15;10.10;99.90
40848;DHT22;26570;50.962;5.340;2024-02-23T14:00:00;10.10;99.90
40848;DHT22;26570;50.962;5.340;2024-02-23T14:02:46;10.20;99.90
40848;DHT22;26570;50.962;5.340;2024-02-23T14:05:54;10.20;99.90
40848;DHT22;26570;50.962;5.340;2024-02-23T14:08:39;10.20;99.90
40848;DHT22;26570;50.962;5.340;2024-02-23T14:11:24;10.20;99.90
40848;DHT22;26570;50.962;5.340;2024-02-23T14:14:09;10.10;99.90
40848;DHT22;26570;50.962;5.340;2024-02-23T14:16:54;10.00;99.90
40848;DHT22;26570;50.962;5.340;2024-02-23T14:19:39;10.00;99.90
40848;DHT22;26570;50.962;5.340;2024-02-23T14:22:24;10.00;99.90
40848;DHT22;26570;50.962;5.340;2024-02-23T14:25:09;10.20;99.90
40848;DHT22;26570;50.962;5.340;2024-02-23T14:27:55;10.10;99.90
40848;DHT22;26570;50.962;5.340;2024-02-23T14:30:43;10.00;99.90
40848;DHT22;26570;50.962;5.340;2024-02-23T14:33:27;10.10;99.90
40848;DHT22;26570;50.962;5.340;2024-02-23T14:36:12;10.00;99.90
40848;DHT22;26570;50.962;5.340;2024-02-23T14:38:57;10.10;99.90
40848;DHT22;26570;50.962;5.340;2024-02-23T14:41:45;10.00;99.90
40848;DHT22;26570;50.962;5.340;2024-02-23T14:44:30;10.00;99.90
40848;DHT22;26570;50.962;5.340;2024-02-23T14:47:15;9.80;99.90
40848;DHT22;26570;50.962;5.340;2024-02-23T14:50:01;9.90;99.90
40848;DHT22;26570;50.962;5.340;2024-02-23T14:52:46;10.20;99.90
40848;DHT22;26570;50.962;5.340;2024-02-23T14:55:31;10.20;99.90
40848;DHT22;26570;50.962;5.340;2024-02-23T14:58:16;10.20;99.90
40848;DHT22;26570;50.962;5.340;2024-02-23T15:01:01;10.20;99.90
40848;DHT22;26570;50.962;5.340;2024-02-23T15:03:46;10.10;99.90
40848;DHT22;26570;50.962;5.340;2024-02-23T15:06:32;10.20;99.90
40848;DHT22;26570;50.962;5.340;2024-02-23T15:09:40;10.20;99.90
40848;DHT22;26570;50.962;5.340;2024-02-23T15:12:24;10.10;99.90
40848;DHT22;26570;50.962;5.340;2024-02-23T15:15:12;10.20;99.90
40848;DHT22;26570;50.962;5.340;2024-02-23T15:17:58;10.20;99.90
40848;DHT22;26570;50.962;5.340;2024-02-23T15:20:43;10.20;99.90
40848;DHT22;26570;50.962;5.340;2024-02-23T15:23:28;10.50;99.90
40848;DHT22;26570;50.962;5.340;2024-02-23T15:26:14;10.80;99.90
40848;DHT22;26570;50.962;5.340;2024-02-23T15:28:59;10.90;99.90
40848;DHT22;26570;50.962;5.340;2024-02-23T15:31:44;11.10;99.90
40848;DHT22;26570;50.962;5.340;2024-02-23T15:34:31;10.90;99.90
40848;DHT22;26570;50.962;5.340;2024-02-23T15:37:15;11.10;99.90
40848;DHT22;26570;50.962;5.340;2024-02-23T15:40:02;11.00;99.90
40848;DHT22;26570;50.962;5.340;2024-02-23T15:42:48;10.90;99.90
40848;DHT22;26570;50.962;5.340;2024-02-23T15:45:35;10.80;99.90
40848;DHT22;26570;50.962;5.340;2024-02-23T15:48:22;10.60;99.90
40848;DHT22;26570;50.962;5.340;2024-02-23T15:51:08;10.60;99.90
40848;DHT22;26570;50.962;5.340;2024-02-23T15:53:53;10.80;99.90
40848;DHT22;26570;50.962;5.340;2024-02-23T15:56:39;10.70;99.90
40848;DHT22;26570;50.962;5.340;2024-02-23T15:59:46;10.50;99.90
40848;DHT22;26570;50.962;5.340;2024-02-23T16:02:31;10.40;99.90
40848;DHT22;26570;50.962;5.340;2024-02-23T16:05:17;10.50;99.90
40848;DHT22;26570;50.962;5.340;2024-02-23T16:08:02;10.50;99.90
40848;DHT22;26570;50.962;5.340;2024-02-23T16:10:51;10.60;99.90
40848;DHT22;26570;50.962;5.340;2024-02-23T16:13:40;10.20;99.90
40848;DHT22;26570;50.962;5.340;2024-02-23T16:16:32;10.40;99.90
40848;DHT22;26570;50.962;5.340;2024-02-23T16:19:17;10.40;99.90
40848;DHT22;26570;50.962;5.340;2024-02-23T16:22:03;10.40;99.90
40848;DHT22;26570;50.962;5.340;2024-02-23T16:24:48;10.40;99.90
40848;DHT22;26570;50.962;5.340;2024-02-23T16:27:33;10.30;99.90
40848;DHT22;26570;50.962;5.340;2024-02-23T16:30:18;10.20;99.90
40848;DHT22;26570;50.962;5.340;2024-02-23T16:33:04;10.20;99.90
40848;DHT22;26570;50.962;5.340;2024-02-23T16:35:49;10.10;99.90
40848;DHT22;26570;50.962;5.340;2024-02-23T16:38:34;9.90;99.90
40848;DHT22;26570;50.962;5.340;2024-02-23T16:41:19;9.70;99.90
40848;DHT22;26570;50.962;5.340;2024-02-23T16:44:05;9.80;99.90
40848;DHT22;26570;50.962;5.340;2024-02-23T16:46:50;9.80;99.90
40848;DHT22;26570;50.962;5.340;2024-02-23T16:49:35;9.40;99.90
40848;DHT22;26570;50.962;5.340;2024-02-23T16:52:20;9.30;99.90
40848;DHT22;26570;50.962;5.340;2024-02-23T16:55:06;9.40;99.90
40848;DHT22;26570;50.962;5.340;2024-02-23T16:57:54;9.40;99.90
40848;DHT22;26570;50.962;5.340;2024-02-23T17:00:39;9.40;99.90
40848;DHT22;26570;50.962;5.340;2024-02-23T17:03:24;9.30;99.90
40848;DHT22;26570;50.962;5.340;2024-02-23T17:06:12;9.10;99.90
40848;DHT22;26570;50.962;5.340;2024-02-23T17:09:23;8.90;99.90
40848;DHT22;26570;50.962;5.340;2024-02-23T17:12:08;9.00;99.90
40848;DHT22;26570;50.962;5.340;2024-02-23T17:14:53;9.10;99.90
40848;DHT22;26570;50.962;5.340;2024-02-23T17:17:38;9.00;99.90
40848;DHT22;26570;50.962;5.340;2024-02-23T17:20:24;9.00;99.90
40848;DHT22;26570;50.962;5.340;2024-02-23T17:23:09;9.00;99.90
40848;DHT22;26570;50.962;5.340;2024-02-23T17:25:54;8.90;99.90
40848;DHT22;26570;50.962;5.340;2024-02-23T17:28:42;8.80;99.90
40848;DHT22;26570;50.962;5.340;2024-02-23T17:31:28;8.90;99.90
40848;DHT22;26570;50.962;5.340;2024-02-23T17:34:13;8.70;99.90
40848;DHT22;26570;50.962;5.340;2024-02-23T17:37:00;8.70;99.90
40848;DHT22;26570;50.962;5.340;2024-02-23T17:40:09;8.80;99.90
40848;DHT22;26570;50.962;5.340;2024-02-23T17:42:55;8.70;99.90
40848;DHT22;26570;50.962;5.340;2024-02-23T17:46:03;8.60;99.90
40848;DHT22;26570;50.962;5.340;2024-02-23T17:48:51;8.60;99.90
40848;DHT22;26570;50.962;5.340;2024-02-23T17:51:37;8.60;99.90
40848;DHT22;26570;50.962;5.340;2024-02-23T17:54:21;8.50;99.90
40848;DHT22;26570;50.962;5.340;2024-02-23T17:57:09;8.50;99.90
40848;DHT22;26570;50.962;5.340;2024-02-23T18:00:17;8.50;99.90
40848;DHT22;26570;50.962;5.340;2024-02-23T18:03:25;8.50;99.90
40848;DHT22;26570;50.962;5.340;2024-02-23T18:06:10;8.30;99.90
40848;DHT22;26570;50.962;5.340;2024-02-23T18:09:04;8.40;99.90
40848;DHT22;26570;50.962;5.340;2024-02-23T18:12:09;8.30;99.90
40848;DHT22;26570;50.962;5.340;2024-02-23T18:15:25;8.10;99.90
40848;DHT22;26570;50.962;5.340;2024-02-23T18:18:19;8.10;99.90
40848;DHT22;26570;50.962;5.340;2024-02-23T18:24:44;8.30;99.90
40848;DHT22;26570;50.962;5.340;2024-02-23T18:27:47;8.10;99.90
40848;DHT22;26570;50.962;5.340;2024-02-23T18:30:34;8.10;99.90
40848;DHT22;26570;50.962;5.340;2024-02-23T18:33:47;8.10;99.90
40848;DHT22;26570;50.962;5.340;2024-02-23T18:36:35;8.00;99.90
40848;DHT22;26570;50.962;5.340;2024-02-23T18:39:26;7.80;99.90
40848;DHT22;26570;50.962;5.340;2024-02-23T18:42:13;8.00;99.90
40848;DHT22;26570;50.962;5.340;2024-02-23T18:45:46;8.10;99.90
40848;DHT22;26570;50.962;5.340;2024-02-23T18:49:32;7.90;99.90
40848;DHT22;26570;50.962;5.340;2024-02-23T18:52:45;7.80;99.90
40848;DHT22;26570;50.962;5.340;2024-02-23T18:55:59;7.80;99.90
40848;DHT22;26570;50.962;5.340;2024-02-23T18:58:47;7.90;99.90
40848;DHT22;26570;50.962;5.340;2024-02-23T19:02:01;7.90;99.90
40848;DHT22;26570;50.962;5.340;2024-02-23T19:05:19;7.90;99.90
40848;DHT22;26570;50.962;5.340;2024-02-23T19:08:07;8.10;99.90
40848;DHT22;26570;50.962;5.340;2024-02-23T19:10:54;8.00;99.90
40848;DHT22;26570;50.962;5.340;2024-02-23T19:14:11;7.80;99.90
40848;DHT22;26570;50.962;5.340;2024-02-23T19:17:24;7.70;99.90
40848;DHT22;26570;50.962;5.340;2024-02-23T19:20:15;7.60;99.90
40848;DHT22;26570;50.962;5.340;2024-02-23T19:23:02;7.50;99.90
40848;DHT22;26570;50.962;5.340;2024-02-23T19:25:57;7.40;99.90
40848;DHT22;26570;50.962;5.340;2024-02-23T19:29:12;7.50;99.90
40848;DHT22;26570;50.962;5.340;2024-02-23T19:32:01;7.50;99.90
40848;DHT22;26570;50.962;5.340;2024-02-23T19:35:02;7.60;99.90
40848;DHT22;26570;50.962;5.340;2024-02-23T19:37:50;7.60;99.90
40848;DHT22;26570;50.962;5.340;2024-02-23T19:40:38;7.60;99.90
40848;DHT22;26570;50.962;5.340;2024-02-23T19:43:27;7.70;99.90
40848;DHT22;26570;50.962;5.340;2024-02-23T19:46:18;7.60;99.90
40848;DHT22;26570;50.962;5.340;2024-02-23T19:49:10;7.70;99.90
40848;DHT22;26570;50.962;5.340;2024-02-23T19:52:20;7.90;99.90